CNC4 weather

Guelph Airport
Guelph, Ontario, Canada

Public forecast

Using degrees Celsius for public forecast. Weather courtesy of forecast.io.

METAR (pilot weather report)

Closest report is Waterloo Airport, 10.1 nm (18.7 km) SW. Retrieved 2019/05/20 17:24 UTC (0 seconds ago):

CYKF 201724Z AUTO 28021G30KT 9SM BKN026 OVC030 11/06 A2983 RMK SLP103

TAF (pilot weather forecast)

Closest forecast is Waterloo Airport, 10.1 nm (18.7 km) SW. Retrieved 2019/05/20 14:39 UTC (2 hours ago):

TAF CYKF 201338Z 2014/2102 27015G28KT P6SM BKN030 BKN060 TEMPO 2014/2015 BKN020 BKN060 FM201500 26020G30KT P6SM BKN030 TEMPO 2015/2024 BKN020 BECMG 2019/2021 29017G27KT FM210000 30012G22KT P6SM BKN030 TEMPO 2100/2102 BKN020 RMK FCST BASED ON AUTO OBS. NXT FCST BY 202000Z